Time;durP1;ratioP1;P1;durP2;ratioP2;P2;SDS_P1;SDS_P2;PMS_P1;PMS_P2;Temp;Humidity;BMP_temperature;BMP_pressure;BME280_temperature;BME280_humidity;BME280_pressure;Samples;Min_cycle;Max_cycle;Signal;HPM_P1;HPM_P2
2023/08/17 00:01:50;;;;;;;11.75;7.28;;;20.00;99.90;;;;;;5014884;28;20175;-50
2023/08/17 00:04:16;;;;;;;8.15;7.03;;;20.10;99.90;;;;;;5011155;28;20172;-48
2023/08/17 00:06:42;;;;;;;8.95;7.18;;;20.10;99.90;;;;;;5011327;28;20168;-51
2023/08/17 00:09:09;;;;;;;12.88;7.55;;;20.00;99.90;;;;;;5011264;28;20196;-48
2023/08/17 00:11:34;;;;;;;8.07;7.20;;;20.00;99.90;;;;;;5011197;28;20570;-49
2023/08/17 00:14:00;;;;;;;8.05;7.28;;;19.80;99.90;;;;;;5010984;28;20305;-51
2023/08/17 00:16:26;;;;;;;8.90;8.00;;;19.80;99.90;;;;;;5011698;28;20262;-50
2023/08/17 00:18:51;;;;;;;8.05;7.22;;;19.80;99.90;;;;;;5014048;28;20164;-50
2023/08/17 00:21:17;;;;;;;11.20;8.20;;;19.70;99.90;;;;;;5014910;28;20176;-47
2023/08/17 00:23:43;;;;;;;9.57;8.27;;;19.80;99.90;;;;;;5015029;28;20168;-51
2023/08/17 00:26:09;;;;;;;8.95;8.05;;;19.80;99.90;;;;;;5014734;28;20175;-50
2023/08/17 00:28:35;;;;;;;7.47;6.78;;;19.90;99.90;;;;;;5021505;28;20709;-51
2023/08/17 00:31:00;;;;;;;12.23;7.47;;;19.80;99.90;;;;;;5034503;28;20168;-51
2023/08/17 00:33:26;;;;;;;9.75;7.10;;;19.70;99.90;;;;;;5034258;28;20175;-50
2023/08/17 00:35:52;;;;;;;8.00;7.20;;;19.70;99.90;;;;;;5034814;28;20202;-51
2023/08/17 00:38:17;;;;;;;7.65;6.57;;;19.60;99.90;;;;;;5034813;28;20630;-50
2023/08/17 00:40:43;;;;;;;8.90;6.90;;;19.70;99.90;;;;;;5034323;28;20163;-51
2023/08/17 00:43:09;;;;;;;9.82;6.85;;;19.60;99.90;;;;;;5034263;28;20164;-50
2023/08/17 00:45:35;;;;;;;7.78;6.05;;;19.60;99.90;;;;;;5034245;28;20182;-50
2023/08/17 00:48:01;;;;;;;8.82;6.18;;;19.60;99.90;;;;;;5034407;28;20202;-50
2023/08/17 00:50:28;;;;;;;8.65;6.45;;;19.60;99.90;;;;;;5034101;28;20623;-48
2023/08/17 00:52:55;;;;;;;6.60;5.70;;;19.50;99.90;;;;;;5034071;28;20181;-49
2023/08/17 00:55:21;;;;;;;6.90;5.95;;;19.50;99.90;;;;;;5034660;28;20217;-51
2023/08/17 00:57:46;;;;;;;9.48;6.72;;;19.50;99.90;;;;;;5032068;28;20545;-50
2023/08/17 01:00:13;;;;;;;7.18;6.47;;;19.50;99.90;;;;;;5033628;28;20167;-49
2023/08/17 01:02:41;;;;;;;8.40;6.55;;;19.50;99.90;;;;;;5033899;28;20174;-47
2023/08/17 01:05:07;;;;;;;7.25;6.53;;;19.40;99.90;;;;;;5034095;28;20175;-46
2023/08/17 01:07:32;;;;;;;8.52;6.82;;;19.40;99.90;;;;;;5033809;28;20169;-46
2023/08/17 01:09:59;;;;;;;7.78;7.07;;;19.50;99.90;;;;;;5033869;28;20581;-46
2023/08/17 01:12:33;;;;;;;8.45;7.65;;;19.40;99.90;;;;;;5033527;28;20215;-46
2023/08/17 01:15:22;;;;;;;7.70;7.00;;;19.40;99.90;;;;;;5033609;28;20206;-46
2023/08/17 01:17:56;;;;;;;7.95;7.25;;;19.50;99.90;;;;;;5033942;28;20164;-46
2023/08/17 01:20:23;;;;;;;8.23;7.50;;;19.40;99.90;;;;;;5034071;28;20168;-46
2023/08/17 01:22:50;;;;;;;9.77;7.88;;;19.50;99.90;;;;;;5032651;28;20172;-46
2023/08/17 01:25:16;;;;;;;7.75;6.63;;;19.50;99.90;;;;;;5033441;28;20251;-45
2023/08/17 01:27:44;;;;;;;10.00;6.80;;;19.50;99.90;;;;;;5029635;28;20933;-47
2023/08/17 01:30:12;;;;;;;7.97;7.32;;;19.50;99.90;;;;;;5013136;28;20659;-46
2023/08/17 01:32:53;;;;;;;8.65;7.75;;;19.50;99.90;;;;;;5013598;28;20180;-46
2023/08/17 01:35:31;;;;;;;7.40;6.65;;;19.30;99.90;;;;;;5013798;28;20230;-46
2023/08/17 01:38:03;;;;;;;9.18;7.25;;;19.50;99.90;;;;;;5013473;28;20174;-46
2023/08/17 01:40:31;;;;;;;7.93;7.28;;;19.50;99.90;;;;;;5013640;28;20172;-46
2023/08/17 01:42:58;;;;;;;8.27;7.03;;;19.40;99.90;;;;;;5012068;28;20168;-48
2023/08/17 01:45:24;;;;;;;7.88;7.07;;;19.40;99.90;;;;;;5013231;28;20173;-46
2023/08/17 01:47:49;;;;;;;8.18;7.38;;;19.40;99.90;;;;;;5013670;28;20201;-46
2023/08/17 01:50:15;;;;;;;7.70;6.97;;;19.50;99.90;;;;;;5013138;28;20238;-46
2023/08/17 01:52:41;;;;;;;8.45;7.30;;;19.40;99.90;;;;;;5014230;28;20218;-46
2023/08/17 01:55:07;;;;;;;8.60;7.90;;;19.40;99.90;;;;;;5012993;28;20215;-46
2023/08/17 01:57:32;;;;;;;9.00;7.60;;;19.40;99.90;;;;;;5013093;28;20175;-47
2023/08/17 02:00:00;;;;;;;9.57;8.10;;;19.30;99.90;;;;;;5013068;28;20227;-46
2023/08/17 02:02:25;;;;;;;8.30;7.35;;;19.30;99.90;;;;;;5013000;28;20179;-46
2023/08/17 02:04:51;;;;;;;11.65;8.07;;;19.30;99.90;;;;;;5013369;28;20172;-46
2023/08/17 02:07:16;;;;;;;9.90;8.30;;;19.40;99.90;;;;;;5013207;28;20183;-46
2023/08/17 02:09:42;;;;;;;9.38;8.48;;;19.40;99.90;;;;;;5013068;28;20176;-45
2023/08/17 02:12:08;;;;;;;8.57;7.68;;;19.30;99.90;;;;;;5012612;28;20251;-46
2023/08/17 02:14:33;;;;;;;8.52;7.63;;;19.40;99.90;;;;;;5012590;28;20208;-46
2023/08/17 02:16:59;;;;;;;9.05;8.15;;;19.30;99.90;;;;;;5012718;28;20175;-46
2023/08/17 02:19:25;;;;;;;8.63;7.65;;;19.20;99.90;;;;;;5012628;28;20172;-46
2023/08/17 02:21:51;;;;;;;8.65;7.72;;;19.30;99.90;;;;;;5013051;28;20168;-46
2023/08/17 02:24:16;;;;;;;10.10;8.38;;;19.30;99.90;;;;;;5032041;28;20619;-46
2023/08/17 02:26:42;;;;;;;11.35;8.20;;;19.30;99.90;;;;;;5032331;28;20170;-46
2023/08/17 02:29:07;;;;;;;10.93;8.27;;;19.20;99.90;;;;;;5032290;28;20167;-46
2023/08/17 02:31:33;;;;;;;10.10;7.90;;;19.30;99.90;;;;;;5032241;28;20172;-47
2023/08/17 02:34:04;;;;;;;9.13;7.88;;;19.40;99.90;;;;;;5032095;28;20199;-46
2023/08/17 02:36:30;;;;;;;11.88;8.00;;;19.40;99.90;;;;;;5032486;28;20216;-46
2023/08/17 02:38:56;;;;;;;9.55;8.55;;;19.30;99.90;;;;;;5032153;28;20544;-45
2023/08/17 02:41:21;;;;;;;10.25;8.50;;;19.30;99.90;;;;;;5031550;28;20566;-46
2023/08/17 02:43:47;;;;;;;12.98;7.63;;;19.40;99.90;;;;;;5032693;28;20163;-46
2023/08/17 02:46:12;;;;;;;8.10;7.38;;;19.50;99.90;;;;;;5030738;28;20172;-46
2023/08/17 02:48:38;;;;;;;7.60;6.93;;;19.40;99.90;;;;;;5031890;28;20170;-46
2023/08/17 02:51:03;;;;;;;13.07;7.55;;;19.40;99.90;;;;;;5031896;28;20168;-46
2023/08/17 02:53:29;;;;;;;10.13;7.43;;;19.50;99.90;;;;;;5018820;28;20230;-47
2023/08/17 02:55:54;;;;;;;8.73;7.88;;;19.40;99.90;;;;;;5012347;28;20679;-48
2023/08/17 02:58:20;;;;;;;10.85;7.88;;;19.30;99.90;;;;;;5012511;28;20176;-48
2023/08/17 03:00:46;;;;;;;8.98;7.97;;;19.40;99.90;;;;;;5012297;28;20215;-48
2023/08/17 03:03:12;;;;;;;8.57;7.35;;;19.40;99.90;;;;;;5012259;28;20256;-47
2023/08/17 03:05:37;;;;;;;10.80;7.25;;;19.50;99.90;;;;;;5011995;28;20192;-46
2023/08/17 03:08:03;;;;;;;9.10;6.70;;;19.40;99.90;;;;;;5010657;28;20176;-47
2023/08/17 03:10:29;;;;;;;8.20;6.80;;;19.40;99.90;;;;;;5011922;28;20302;-48
2023/08/17 03:12:55;;;;;;;11.52;7.15;;;19.40;99.90;;;;;;5011692;28;20228;-48
2023/08/17 03:15:20;;;;;;;7.90;7.07;;;19.30;99.90;;;;;;5012137;28;20210;-49
2023/08/17 03:17:46;;;;;;;8.23;7.38;;;19.40;99.90;;;;;;5014578;28;20184;-46
2023/08/17 03:20:11;;;;;;;9.57;7.32;;;19.40;99.90;;;;;;5031561;28;20190;-47
2023/08/17 03:22:37;;;;;;;9.75;6.72;;;19.40;99.90;;;;;;5031485;28;20167;-48
2023/08/17 03:25:03;;;;;;;8.18;6.68;;;19.40;99.90;;;;;;5031408;28;20246;-49
2023/08/17 03:27:29;;;;;;;9.23;7.38;;;19.30;99.90;;;;;;5031660;28;20171;-47
2023/08/17 03:29:54;;;;;;;10.02;6.70;;;19.30;99.90;;;;;;5031413;28;20200;-47
2023/08/17 03:32:20;;;;;;;8.55;7.70;;;19.20;99.90;;;;;;5031792;28;20241;-48
2023/08/17 03:34:46;;;;;;;10.48;8.45;;;19.20;99.90;;;;;;5031273;28;20211;-46
2023/08/17 03:37:11;;;;;;;13.02;7.85;;;19.10;99.90;;;;;;5031554;28;20197;-47
2023/08/17 03:39:37;;;;;;;11.45;7.50;;;19.10;99.90;;;;;;5031316;28;20534;-47
2023/08/17 03:42:03;;;;;;;10.70;7.68;;;19.10;99.90;;;;;;5031526;28;20586;-48
2023/08/17 03:44:28;;;;;;;11.25;8.10;;;19.00;99.90;;;;;;5030794;28;20504;-48
2023/08/17 03:46:54;;;;;;;9.32;8.38;;;22.00;99.90;;;;;;5031236;28;20635;-47
2023/08/17 03:49:19;;;;;;;9.18;8.32;;;19.00;99.90;;;;;;5031371;28;20179;-48
2023/08/17 03:51:45;;;;;;;14.27;8.80;;;19.00;99.90;;;;;;5032048;28;20175;-47
2023/08/17 03:54:12;;;;;;;10.82;9.00;;;19.00;99.90;;;;;;5035161;28;20190;-46
2023/08/17 03:56:38;;;;;;;9.32;8.07;;;19.10;99.90;;;;;;5035121;28;20254;-47
2023/08/17 03:59:04;;;;;;;11.05;8.43;;;19.10;99.90;;;;;;5035271;28;20250;-46
2023/08/17 04:01:29;;;;;;;11.63;8.40;;;19.00;99.90;;;;;;5035098;28;20658;-46
2023/08/17 04:03:55;;;;;;;10.15;8.60;;;19.00;99.90;;;;;;5034975;28;20177;-47
2023/08/17 04:06:21;;;;;;;10.20;8.25;;;19.00;99.90;;;;;;5035385;28;20711;-46
2023/08/17 04:08:46;;;;;;;9.80;8.55;;;17.50;99.90;;;;;;5035395;28;20647;-46
2023/08/17 04:11:12;;;;;;;10.93;8.75;;;19.10;99.90;;;;;;5034803;28;20167;-46
2023/08/17 04:13:37;;;;;;;11.32;7.68;;;19.00;99.90;;;;;;5034714;28;20215;-45
2023/08/17 04:16:03;;;;;;;9.52;8.60;;;18.90;99.90;;;;;;5033404;28;20761;-47
2023/08/17 04:18:28;;;;;;;12.15;9.20;;;18.90;99.90;;;;;;5033742;28;20239;-46
2023/08/17 04:20:54;;;;;;;9.48;8.48;;;19.00;99.90;;;;;;5034778;28;20255;-46
2023/08/17 04:23:19;;;;;;;11.27;9.65;;;18.90;99.90;;;;;;5034981;28;20251;-46
2023/08/17 04:25:46;;;;;;;13.85;10.38;;;18.80;99.90;;;;;;5034618;28;20171;-46
2023/08/17 04:28:12;;;;;;;11.50;10.13;;;18.90;99.90;;;;;;5034597;28;20597;-46
2023/08/17 04:30:38;;;;;;;12.15;9.68;;;18.80;99.90;;;;;;5034154;28;20247;-47
2023/08/17 04:33:04;;;;;;;14.13;10.18;;;18.90;99.90;;;;;;5032953;28;20175;-47
2023/08/17 04:35:30;;;;;;;12.02;9.75;;;18.80;99.90;;;;;;5034379;28;20214;-45
2023/08/17 04:37:55;;;;;;;12.30;10.23;;;18.80;99.90;;;;;;5034319;28;20167;-46
2023/08/17 04:40:21;;;;;;;12.13;10.60;;;18.70;99.90;;;;;;5034349;28;20167;-45
2023/08/17 04:42:46;;;;;;;12.85;11.07;;;18.70;99.90;;;;;;5034747;28;20171;-46
2023/08/17 04:45:12;;;;;;;15.07;12.40;;;18.70;99.90;;;;;;5034235;28;20176;-45
2023/08/17 04:47:39;;;;;;;20.30;13.45;;;18.80;99.90;;;;;;5029910;28;20512;-46
2023/08/17 04:50:05;;;;;;;15.43;13.43;;;18.70;99.90;;;;;;5014323;28;20176;-46
2023/08/17 04:52:30;;;;;;;19.45;14.60;;;18.70;99.90;;;;;;5014514;28;20172;-46
2023/08/17 04:54:56;;;;;;;19.85;15.18;;;18.70;99.90;;;;;;5014071;28;20575;-46
2023/08/17 04:57:22;;;;;;;17.92;14.18;;;18.70;99.90;;;;;;5014112;28;20192;-46
2023/08/17 04:59:47;;;;;;;21.58;16.13;;;18.80;99.90;;;;;;5014452;28;20654;-46
2023/08/17 05:02:13;;;;;;;18.95;15.32;;;18.80;99.90;;;;;;5014051;28;20665;-45
2023/08/17 05:04:39;;;;;;;21.33;16.27;;;18.70;99.90;;;;;;5012929;28;20178;-46
2023/08/17 05:07:05;;;;;;;20.85;16.92;;;18.70;99.90;;;;;;5014038;28;20172;-47
2023/08/17 05:09:31;;;;;;;19.60;16.63;;;18.80;99.90;;;;;;5014287;28;20535;-46
2023/08/17 05:11:57;;;;;;;25.50;16.98;;;18.90;99.90;;;;;;5014028;28;20175;-47
2023/08/17 05:14:22;;;;;;;18.90;16.90;;;18.80;99.90;;;;;;5014024;28;20199;-46
2023/08/17 05:16:48;;;;;;;23.88;17.77;;;18.90;99.90;;;;;;5014179;28;20221;-46
2023/08/17 05:19:13;;;;;;;23.98;16.98;;;18.90;99.90;;;;;;5031790;28;20642;-47
2023/08/17 05:21:39;;;;;;;19.50;16.40;;;18.80;99.90;;;;;;5033577;28;20235;-47
2023/08/17 05:24:05;;;;;;;20.38;16.70;;;18.80;99.90;;;;;;5033494;28;20167;-47
2023/08/17 05:26:30;;;;;;;18.85;16.25;;;18.90;99.90;;;;;;5033671;28;20551;-48
2023/08/17 05:28:56;;;;;;;22.85;16.60;;;18.80;99.90;;;;;;5033446;28;20623;-46
2023/08/17 05:31:21;;;;;;;20.20;17.23;;;18.80;99.90;;;;;;5033426;28;20182;-45
2023/08/17 05:33:47;;;;;;;19.63;17.02;;;18.80;99.90;;;;;;5033800;28;20243;-46
2023/08/17 05:36:13;;;;;;;22.17;15.35;;;18.90;99.90;;;;;;5033259;28;20218;-46
2023/08/17 05:38:38;;;;;;;20.73;16.88;;;18.90;99.90;;;;;;5033285;28;20171;-46
2023/08/17 05:41:04;;;;;;;22.23;16.55;;;18.90;99.90;;;;;;5033426;28;20242;-47
2023/08/17 05:43:29;;;;;;;17.83;15.73;;;19.00;99.90;;;;;;5033071;28;20171;-45
2023/08/17 05:45:59;;;;;;;18.13;15.05;;;19.10;99.90;;;;;;5031853;28;20163;-47
2023/08/17 05:48:24;;;;;;;19.35;16.10;;;18.90;99.90;;;;;;5019815;28;20199;-45
2023/08/17 05:50:50;;;;;;;19.30;15.10;;;19.00;99.90;;;;;;5013622;28;20180;-46
2023/08/17 05:53:16;;;;;;;18.80;15.32;;;19.20;99.90;;;;;;5013740;28;20168;-45
2023/08/17 05:55:41;;;;;;;24.00;13.95;;;19.10;99.90;;;;;;5013126;28;20294;-46
2023/08/17 05:58:07;;;;;;;17.05;14.38;;;19.10;99.90;;;;;;5013070;28;20624;-46
2023/08/17 06:00:32;;;;;;;17.35;13.25;;;19.20;99.90;;;;;;5013018;28;20221;-46
2023/08/17 06:03:01;;;;;;;15.18;13.68;;;19.20;99.90;;;;;;5013097;28;20203;-45
2023/08/17 06:05:30;;;;;;;19.48;12.60;;;19.20;99.90;;;;;;5013193;28;20207;-45
2023/08/17 06:07:59;;;;;;;15.07;12.77;;;19.20;99.90;;;;;;5012978;28;20214;-45
2023/08/17 06:10:25;;;;;;;16.52;11.18;;;19.30;99.90;;;;;;5012966;28;20172;-46
2023/08/17 06:12:57;;;;;;;11.20;10.00;;;19.30;99.90;;;;;;5013065;28;20223;-45
2023/08/17 06:15:23;;;;;;;11.60;9.00;;;19.30;99.90;;;;;;5012818;28;20208;-45
2023/08/17 06:17:52;;;;;;;11.05;9.38;;;19.20;99.90;;;;;;5020841;28;20221;-45
2023/08/17 06:20:18;;;;;;;10.75;9.45;;;19.20;99.90;;;;;;5031552;28;20171;-45
2023/08/17 06:22:44;;;;;;;11.50;9.60;;;19.30;99.90;;;;;;5032648;28;20168;-49
2023/08/17 06:25:09;;;;;;;10.18;8.93;;;19.30;99.90;;;;;;5032271;28;20169;-51
2023/08/17 06:27:35;;;;;;;9.75;8.32;;;19.40;99.90;;;;;;5032393;28;20263;-51
2023/08/17 06:30:02;;;;;;;10.55;8.68;;;19.50;99.90;;;;;;5032575;28;20195;-46
2023/08/17 06:32:29;;;;;;;11.38;9.30;;;19.60;99.90;;;;;;5032309;28;20619;-50
2023/08/17 06:34:55;;;;;;;10.90;9.75;;;19.60;99.90;;;;;;5032129;28;20289;-47
2023/08/17 06:37:20;;;;;;;11.98;9.38;;;19.70;99.90;;;;;;5032571;28;20255;-46
2023/08/17 06:39:46;;;;;;;10.38;8.85;;;19.70;99.90;;;;;;5032570;28;20207;-45
2023/08/17 06:42:11;;;;;;;10.77;9.52;;;19.80;99.90;;;;;;5032033;28;20171;-45
2023/08/17 06:44:37;;;;;;;11.98;9.45;;;19.80;99.90;;;;;;5031864;28;20178;-45
2023/08/17 06:47:03;;;;;;;12.35;10.13;;;19.80;99.90;;;;;;5031275;28;20183;-46
2023/08/17 06:49:28;;;;;;;13.18;11.10;;;19.80;99.90;;;;;;5031794;28;20233;-45
2023/08/17 06:51:54;;;;;;;12.50;11.23;;;19.80;99.90;;;;;;5032133;28;20174;-46
2023/08/17 06:54:20;;;;;;;12.18;10.98;;;19.90;99.90;;;;;;5032329;28;20203;-45
2023/08/17 06:56:45;;;;;;;11.80;10.70;;;19.90;99.90;;;;;;5030482;28;20171;-46
2023/08/17 06:59:11;;;;;;;14.40;11.05;;;20.30;99.90;;;;;;5031807;28;20643;-45
2023/08/17 07:01:36;;;;;;;13.40;11.63;;;20.30;99.90;;;;;;5017607;28;20523;-46
2023/08/17 07:04:02;;;;;;;16.58;11.43;;;20.00;99.90;;;;;;5011984;28;20255;-45
2023/08/17 07:06:28;;;;;;;14.48;11.88;;;20.00;99.90;;;;;;5012181;28;20176;-45
2023/08/17 07:08:54;;;;;;;12.93;11.55;;;20.10;99.90;;;;;;5012152;28;20219;-45
2023/08/17 07:11:20;;;;;;;12.55;11.25;;;20.20;99.90;;;;;;5012354;28;20640;-45
2023/08/17 07:13:46;;;;;;;12.13;10.95;;;20.20;99.90;;;;;;5012205;28;20691;-45
2023/08/17 07:16:12;;;;;;;12.20;10.00;;;20.30;99.90;;;;;;5011701;28;20220;-45
2023/08/17 07:18:37;;;;;;;12.32;9.93;;;20.30;99.90;;;;;;5028823;28;20175;-46
2023/08/17 07:21:03;;;;;;;13.68;10.10;;;20.40;99.90;;;;;;5031440;28;20624;-46
2023/08/17 07:23:28;;;;;;;11.68;8.93;;;20.40;99.90;;;;;;5031470;28;20557;-45
2023/08/17 07:25:54;;;;;;;14.32;10.20;;;20.40;99.90;;;;;;5031087;28;20624;-46
2023/08/17 07:28:19;;;;;;;11.80;10.27;;;20.40;99.90;;;;;;5031640;28;20697;-45
2023/08/17 07:30:45;;;;;;;11.07;9.82;;;20.50;99.90;;;;;;5031402;28;20175;-45
2023/08/17 07:33:10;;;;;;;11.85;10.05;;;20.40;99.90;;;;;;5031650;28;20233;-45
2023/08/17 07:35:36;;;;;;;11.90;10.13;;;20.60;99.90;;;;;;5031215;28;20206;-46
2023/08/17 07:38:02;;;;;;;12.23;10.93;;;20.60;99.90;;;;;;5031158;28;20175;-46
2023/08/17 07:40:27;;;;;;;16.67;10.98;;;20.70;99.90;;;;;;5031485;28;20183;-45
2023/08/17 07:42:53;;;;;;;13.93;11.27;;;20.70;99.90;;;;;;5031228;28;20163;-45
2023/08/17 07:45:19;;;;;;;12.00;10.82;;;20.70;99.90;;;;;;5031645;28;20175;-45
2023/08/17 07:47:44;;;;;;;13.45;10.70;;;20.60;99.90;;;;;;5030464;28;20172;-46
2023/08/17 07:50:10;;;;;;;14.98;11.68;;;20.60;99.90;;;;;;5031248;28;20167;-45
2023/08/17 07:52:35;;;;;;;11.80;10.60;;;20.70;99.90;;;;;;5031381;28;20580;-46
2023/08/17 07:55:01;;;;;;;14.60;11.10;;;20.70;99.90;;;;;;5031157;28;20234;-45
2023/08/17 07:57:27;;;;;;;13.98;11.13;;;20.70;99.90;;;;;;5031188;28;20217;-45
2023/08/17 07:59:53;;;;;;;16.42;11.73;;;20.80;99.90;;;;;;5031396;28;20175;-46
2023/08/17 08:02:19;;;;;;;13.05;11.77;;;20.90;99.90;;;;;;5030201;28;20171;-46
2023/08/17 08:04:44;;;;;;;13.80;12.07;;;21.00;99.90;;;;;;5031029;28;20289;-45
2023/08/17 08:07:10;;;;;;;17.20;13.43;;;21.10;99.90;;;;;;5030995;28;20669;-46
2023/08/17 08:09:36;;;;;;;16.13;13.27;;;21.00;99.90;;;;;;5031030;28;20533;-45
2023/08/17 08:12:02;;;;;;;13.45;12.05;;;21.00;99.90;;;;;;5030920;28;20250;-45
2023/08/17 08:14:29;;;;;;;15.13;11.98;;;21.00;99.90;;;;;;5030908;28;20199;-45
2023/08/17 08:16:54;;;;;;;14.68;11.77;;;20.90;99.90;;;;;;5025364;28;20172;-46
2023/08/17 08:19:20;;;;;;;14.20;12.30;;;20.90;99.90;;;;;;5011305;28;20179;-45
2023/08/17 08:21:46;;;;;;;16.92;12.48;;;21.00;99.90;;;;;;5011589;28;20252;-45
2023/08/17 08:24:11;;;;;;;12.93;11.63;;;21.00;99.90;;;;;;5011066;28;20207;-46
2023/08/17 08:26:37;;;;;;;14.25;12.80;;;21.10;99.90;;;;;;5011145;28;20164;-46
2023/08/17 08:29:02;;;;;;;15.57;12.68;;;21.10;99.90;;;;;;5009832;28;20316;-47
2023/08/17 08:31:28;;;;;;;18.55;13.52;;;21.10;99.90;;;;;;5011137;28;20172;-45
2023/08/17 08:33:54;;;;;;;18.73;13.38;;;21.00;99.90;;;;;;5011075;28;20176;-46
2023/08/17 08:36:20;;;;;;;15.98;13.38;;;21.10;99.90;;;;;;5011691;28;20176;-45
2023/08/17 08:38:45;;;;;;;15.52;13.40;;;21.30;99.90;;;;;;5012450;28;20295;-45
2023/08/17 08:41:12;;;;;;;18.05;12.70;;;21.30;99.90;;;;;;5014611;28;20251;-46
2023/08/17 08:43:38;;;;;;;18.48;16.67;;;21.50;99.90;;;;;;5014653;28;20451;-45
2023/08/17 08:46:05;;;;;;;17.20;15.27;;;21.50;99.90;;;;;;5015718;28;20641;-45
2023/08/17 08:48:32;;;;;;;16.73;15.02;;;21.60;99.90;;;;;;5034476;28;20316;-45
2023/08/17 08:51:00;;;;;;;21.00;15.38;;;21.60;99.90;;;;;;5034211;28;20168;-45
2023/08/17 08:53:36;;;;;;;20.83;15.70;;;21.70;99.90;;;;;;5034130;28;20650;-47
2023/08/17 08:56:03;;;;;;;17.23;15.30;;;21.80;99.90;;;;;;5033988;28;20203;-47
2023/08/17 08:58:30;;;;;;;20.65;15.82;;;21.60;99.90;;;;;;5033961;28;20616;-47
2023/08/17 09:00:57;;;;;;;20.70;16.10;;;21.50;99.90;;;;;;5033896;28;20172;-50
2023/08/17 09:03:25;;;;;;;19.38;16.02;;;21.50;99.90;;;;;;5033875;28;20167;-45
2023/08/17 09:05:51;;;;;;;17.08;15.20;;;21.50;99.90;;;;;;5034123;28;20195;-45
2023/08/17 09:08:22;;;;;;;18.55;15.10;;;21.60;99.90;;;;;;5034145;28;20607;-45
2023/08/17 09:10:48;;;;;;;21.67;15.40;;;21.60;99.90;;;;;;5034397;28;20177;-45
2023/08/17 09:13:14;;;;;;;21.52;15.60;;;21.60;99.90;;;;;;5033827;28;20588;-45
2023/08/17 09:15:40;;;;;;;17.35;14.57;;;21.60;99.90;;;;;;5033809;28;20207;-49
2023/08/17 09:18:08;;;;;;;18.88;16.98;;;21.60;99.90;;;;;;5015482;28;20175;-45
2023/08/17 09:20:35;;;;;;;19.63;16.85;;;21.60;99.90;;;;;;5013858;28;20175;-45
2023/08/17 09:23:04;;;;;;;18.38;15.25;;;21.70;99.90;;;;;;5013785;28;20310;-45
2023/08/17 09:25:33;;;;;;;18.25;15.43;;;21.70;99.90;;;;;;5013789;28;20633;-50
2023/08/17 09:27:59;;;;;;;21.35;15.95;;;21.90;99.90;;;;;;5013616;28;20172;-51
2023/08/17 09:30:24;;;;;;;24.85;14.73;;;21.80;99.90;;;;;;5013692;28;20168;-45
2023/08/17 09:32:50;;;;;;;24.05;18.67;;;21.90;99.90;;;;;;5012347;28;20628;-45
2023/08/17 09:35:15;;;;;;;21.42;17.20;;;21.80;99.90;;;;;;5013858;28;20211;-51
2023/08/17 09:37:41;;;;;;;21.98;16.90;;;22.00;99.90;;;;;;5013652;28;20179;-51
2023/08/17 09:40:08;;;;;;;24.15;18.58;;;21.90;99.90;;;;;;5013721;28;20167;-45
2023/08/17 09:42:38;;;;;;;17.75;15.88;;;22.00;99.90;;;;;;5013637;28;20271;-45
2023/08/17 09:45:04;;;;;;;25.10;16.13;;;22.10;99.90;;;;;;5013324;28;20699;-46
2023/08/17 09:47:30;;;;;;;23.83;17.58;;;22.20;99.90;;;;;;5029208;28;20581;-51
2023/08/17 09:49:55;;;;;;;22.98;19.20;;;22.40;99.90;;;;;;5032574;28;20179;-50
2023/08/17 09:52:23;;;;;;;20.73;17.05;;;22.40;99.90;;;;;;5032958;28;20169;-45
2023/08/17 09:54:49;;;;;;;18.30;16.35;;;22.40;99.90;;;;;;5033194;28;20541;-45
2023/08/17 09:57:15;;;;;;;17.40;15.38;;;22.40;99.90;;;;;;5032870;28;20174;-45
2023/08/17 09:59:41;;;;;;;16.70;13.93;;;22.40;99.90;;;;;;5032887;28;20164;-45
2023/08/17 10:02:20;;;;;;;16.90;13.88;;;22.30;99.90;;;;;;5032774;28;20205;-51
2023/08/17 10:04:53;;;;;;;18.90;14.02;;;22.30;99.90;;;;;;5033208;28;20167;-46
2023/08/17 10:07:20;;;;;;;19.02;15.30;;;22.20;99.90;;;;;;5033167;28;20232;-45
2023/08/17 10:09:56;;;;;;;18.77;14.10;;;21.70;99.90;;;;;;5033349;28;20195;-45
2023/08/17 10:12:26;;;;;;;19.30;16.02;;;22.40;99.90;;;;;;5032410;28;20296;-45
2023/08/17 10:14:59;;;;;;;22.67;15.60;;;22.50;99.90;;;;;;5032516;28;20210;-46
2023/08/17 10:17:34;;;;;;;21.23;16.30;;;22.30;99.90;;;;;;5017679;28;20198;-46
2023/08/17 10:20:00;;;;;;;21.17;16.05;;;22.50;99.90;;;;;;5012729;28;20646;-45
2023/08/17 10:22:50;;;;;;;21.42;15.88;;;22.60;99.90;;;;;;5012694;28;20180;-45
2023/08/17 10:25:16;;;;;;;17.92;15.18;;;22.60;99.90;;;;;;5013336;28;20186;-47
2023/08/17 10:27:42;;;;;;;18.85;15.98;;;22.40;99.90;;;;;;5012600;28;20159;-45
2023/08/17 10:30:10;;;;;;;20.45;15.65;;;22.30;99.90;;;;;;5012722;28;20217;-46
2023/08/17 10:32:36;;;;;;;25.55;17.83;;;22.20;99.90;;;;;;5012520;28;20160;-45
2023/08/17 10:35:03;;;;;;;22.20;15.98;;;22.30;99.90;;;;;;5012424;28;20210;-46
2023/08/17 10:37:29;;;;;;;21.85;17.17;;;22.40;99.90;;;;;;5012530;28;20172;-45
2023/08/17 10:39:54;;;;;;;23.75;18.10;;;22.20;99.90;;;;;;5012470;28;20282;-45
2023/08/17 10:42:34;;;;;;;21.13;17.17;;;22.10;99.90;;;;;;5012399;28;20168;-45
2023/08/17 10:45:01;;;;;;;23.90;17.30;;;22.30;99.90;;;;;;5012544;28;20175;-45
2023/08/17 10:47:33;;;;;;;24.30;16.95;;;22.30;99.90;;;;;;5030574;28;20186;-46
2023/08/17 10:50:19;;;;;;;21.55;15.52;;;22.30;99.90;;;;;;5032209;28;20178;-46
2023/08/17 10:52:48;;;;;;;18.92;16.48;;;22.20;99.90;;;;;;5032317;28;20388;-46
2023/08/17 10:55:14;;;;;;;21.90;15.40;;;22.00;99.90;;;;;;5031729;28;20588;-46
2023/08/17 10:57:43;;;;;;;22.30;16.92;;;22.10;99.90;;;;;;5031851;28;20178;-46
2023/08/17 11:00:32;;;;;;;21.02;16.27;;;22.00;99.90;;;;;;5031771;28;20173;-45
2023/08/17 11:03:01;;;;;;;24.92;17.10;;;22.20;99.90;;;;;;5031454;28;20186;-46
2023/08/17 11:05:49;;;;;;;17.42;15.63;;;22.20;99.90;;;;;;5031766;28;20159;-47
2023/08/17 11:08:34;;;;;;;18.10;15.73;;;22.30;99.90;;;;;;5032119;28;20163;-46
2023/08/17 11:11:13;;;;;;;24.15;16.33;;;22.30;99.90;;;;;;5031911;28;20167;-47
2023/08/17 11:13:44;;;;;;;19.88;16.77;;;22.40;99.90;;;;;;5031404;28;20219;-46
2023/08/17 11:16:12;;;;;;;23.00;17.65;;;22.40;99.90;;;;;;5030885;28;20195;-45
2023/08/17 11:18:38;;;;;;;23.90;17.88;;;22.30;99.90;;;;;;5029970;28;20179;-45
2023/08/17 11:21:05;;;;;;;20.88;17.48;;;22.20;99.90;;;;;;5031438;28;20167;-46
2023/08/17 11:23:32;;;;;;;22.65;17.00;;;22.50;99.90;;;;;;5031507;28;20163;-46
2023/08/17 11:25:58;;;;;;;20.20;15.63;;;22.60;99.90;;;;;;5031466;28;20228;-46
2023/08/17 11:28:24;;;;;;;24.15;17.38;;;22.70;99.90;;;;;;5031450;28;20250;-45
2023/08/17 11:31:10;;;;;;;17.23;15.38;;;22.70;99.90;;;;;;5031450;28;20237;-46
2023/08/17 11:33:40;;;;;;;22.02;16.85;;;22.80;99.90;;;;;;5031372;28;20167;-46
2023/08/17 11:36:07;;;;;;;19.38;16.75;;;22.90;99.90;;;;;;5031187;28;20214;-46
2023/08/17 11:38:35;;;;;;;17.77;15.90;;;22.80;99.90;;;;;;5031485;28;20170;-45
2023/08/17 11:41:02;;;;;;;18.40;14.70;;;22.80;99.90;;;;;;5031326;28;20167;-46
2023/08/17 11:43:29;;;;;;;18.55;14.52;;;22.90;99.90;;;;;;5031540;28;20163;-46
2023/08/17 11:45:55;;;;;;;18.25;15.10;;;23.00;99.90;;;;;;5022930;28;20207;-45
2023/08/17 11:48:21;;;;;;;16.48;14.13;;;22.90;99.90;;;;;;5011489;28;20186;-45
2023/08/17 11:50:47;;;;;;;17.52;15.23;;;23.00;99.90;;;;;;5011890;28;20644;-47
2023/08/17 11:53:13;;;;;;;19.67;15.63;;;23.10;99.90;;;;;;5011414;28;20225;-46
2023/08/17 11:55:38;;;;;;;21.17;14.98;;;23.10;99.90;;;;;;5011330;28;20207;-45
2023/08/17 11:58:04;;;;;;;17.65;15.00;;;23.10;99.90;;;;;;5010169;28;20168;-45
2023/08/17 12:00:36;;;;;;;18.83;14.15;;;23.00;99.90;;;;;;5010825;28;20171;-46
2023/08/17 12:03:03;;;;;;;20.70;16.05;;;23.00;99.90;;;;;;5011384;28;20163;-45
2023/08/17 12:05:31;;;;;;;18.52;14.75;;;23.10;99.90;;;;;;5011119;28;20164;-49
2023/08/17 12:07:58;;;;;;;17.98;15.13;;;23.10;99.90;;;;;;5011398;28;20262;-45
2023/08/17 12:10:27;;;;;;;17.40;14.95;;;23.20;99.90;;;;;;5011093;28;20175;-45
2023/08/17 12:12:52;;;;;;;17.95;15.88;;;23.20;99.90;;;;;;5012191;28;20694;-46
2023/08/17 12:15:18;;;;;;;18.05;16.17;;;23.40;99.90;;;;;;5017985;28;20257;-45
2023/08/17 12:17:48;;;;;;;21.52;16.17;;;23.40;99.90;;;;;;5034915;28;20228;-45
2023/08/17 12:20:20;;;;;;;18.15;16.05;;;23.40;99.90;;;;;;5035257;28;20176;-45
2023/08/17 12:22:46;;;;;;;20.77;18.08;;;23.40;99.90;;;;;;5033849;28;20171;-45
2023/08/17 12:25:13;;;;;;;21.05;18.25;;;23.10;99.90;;;;;;5034452;28;20246;-46
2023/08/17 12:27:39;;;;;;;21.30;18.73;;;23.20;99.90;;;;;;5034366;28;20170;-45
2023/08/17 12:30:11;;;;;;;24.85;18.38;;;23.00;99.90;;;;;;5034071;28;20163;-45
2023/08/17 12:32:37;;;;;;;19.25;16.70;;;23.00;99.90;;;;;;5034321;28;20662;-45